sensor_id;sensor_type;location;lat;lon;timestamp;temperature;humidity
58413;DHT22;44209;52.952;6.790;2022-12-10T00:01:09;-1.00;99.90
58413;DHT22;44209;52.952;6.790;2022-12-10T00:03:35;-1.00;99.90
58413;DHT22;44209;52.952;6.790;2022-12-10T00:06:02;-1.00;99.90
58413;DHT22;44209;52.952;6.790;2022-12-10T00:08:29;-1.00;99.90
58413;DHT22;44209;52.952;6.790;2022-12-10T00:10:54;-1.00;99.90
58413;DHT22;44209;52.952;6.790;2022-12-10T00:13:20;-1.00;99.90
58413;DHT22;44209;52.952;6.790;2022-12-10T00:15:46;-1.00;99.90
58413;DHT22;44209;52.952;6.790;2022-12-10T00:18:11;-1.00;99.90
58413;DHT22;44209;52.952;6.790;2022-12-10T00:20:37;-1.00;99.90
58413;DHT22;44209;52.952;6.790;2022-12-10T00:23:03;-1.00;99.90
58413;DHT22;44209;52.952;6.790;2022-12-10T00:25:31;-1.00;99.90
58413;DHT22;44209;52.952;6.790;2022-12-10T00:27:57;-0.90;99.90
58413;DHT22;44209;52.952;6.790;2022-12-10T00:30:22;-0.90;99.90
58413;DHT22;44209;52.952;6.790;2022-12-10T00:32:48;-0.90;99.90
58413;DHT22;44209;52.952;6.790;2022-12-10T00:35:14;-0.90;99.90
58413;DHT22;44209;52.952;6.790;2022-12-10T00:37:39;-0.80;99.90
58413;DHT22;44209;52.952;6.790;2022-12-10T00:40:05;-0.80;99.90
58413;DHT22;44209;52.952;6.790;2022-12-10T00:42:31;-0.80;99.90
58413;DHT22;44209;52.952;6.790;2022-12-10T00:44:57;-0.80;99.90
58413;DHT22;44209;52.952;6.790;2022-12-10T00:47:22;-0.80;99.90
58413;DHT22;44209;52.952;6.790;2022-12-10T00:49:48;-0.80;99.90
58413;DHT22;44209;52.952;6.790;2022-12-10T00:52:14;-0.70;99.90
58413;DHT22;44209;52.952;6.790;2022-12-10T00:54:40;-0.70;99.90
58413;DHT22;44209;52.952;6.790;2022-12-10T00:57:06;-0.70;99.90
58413;DHT22;44209;52.952;6.790;2022-12-10T00:59:32;-0.60;99.90
58413;DHT22;44209;52.952;6.790;2022-12-10T01:01:57;-0.60;99.90
58413;DHT22;44209;52.952;6.790;2022-12-10T01:04:23;-0.50;99.90
58413;DHT22;44209;52.952;6.790;2022-12-10T01:06:51;-0.50;99.90
58413;DHT22;44209;52.952;6.790;2022-12-10T01:09:19;-0.50;99.90
58413;DHT22;44209;52.952;6.790;2022-12-10T01:11:47;-0.50;99.90
58413;DHT22;44209;52.952;6.790;2022-12-10T01:14:19;-0.50;99.90
58413;DHT22;44209;52.952;6.790;2022-12-10T01:16:45;-0.50;99.90
58413;DHT22;44209;52.952;6.790;2022-12-10T01:19:11;-0.50;99.90
58413;DHT22;44209;52.952;6.790;2022-12-10T01:21:37;-0.50;99.90
58413;DHT22;44209;52.952;6.790;2022-12-10T01:24:03;-0.50;99.90
58413;DHT22;44209;52.952;6.790;2022-12-10T01:26:31;-0.40;99.90
58413;DHT22;44209;52.952;6.790;2022-12-10T01:28:58;-0.40;99.90
58413;DHT22;44209;52.952;6.790;2022-12-10T01:31:26;-0.40;99.90
58413;DHT22;44209;52.952;6.790;2022-12-10T01:33:53;-0.40;99.90
58413;DHT22;44209;52.952;6.790;2022-12-10T01:36:33;-0.40;99.90
58413;DHT22;44209;52.952;6.790;2022-12-10T01:39:00;-0.40;99.90
58413;DHT22;44209;52.952;6.790;2022-12-10T01:41:35;-0.50;99.90
58413;DHT22;44209;52.952;6.790;2022-12-10T01:46:56;-0.50;99.90
58413;DHT22;44209;52.952;6.790;2022-12-10T01:49:31;-0.60;99.90
58413;DHT22;44209;52.952;6.790;2022-12-10T01:51:58;-0.60;99.90
58413;DHT22;44209;52.952;6.790;2022-12-10T01:54:28;-0.60;99.90
58413;DHT22;44209;52.952;6.790;2022-12-10T01:57:03;-0.60;99.90
58413;DHT22;44209;52.952;6.790;2022-12-10T01:59:30;-0.70;99.90
58413;DHT22;44209;52.952;6.790;2022-12-10T02:07:43;-0.70;99.90
58413;DHT22;44209;52.952;6.790;2022-12-10T02:10:27;-0.70;99.90
58413;DHT22;44209;52.952;6.790;2022-12-10T02:13:06;-0.70;99.90
58413;DHT22;44209;52.952;6.790;2022-12-10T02:15:40;-0.70;99.90
58413;DHT22;44209;52.952;6.790;2022-12-10T02:18:16;-0.80;99.90
58413;DHT22;44209;52.952;6.790;2022-12-10T02:20:49;-0.80;99.90
58413;DHT22;44209;52.952;6.790;2022-12-10T02:23:23;-0.90;99.90
58413;DHT22;44209;52.952;6.790;2022-12-10T02:26:06;-0.90;99.90
58413;DHT22;44209;52.952;6.790;2022-12-10T02:29:05;-0.90;99.90
58413;DHT22;44209;52.952;6.790;2022-12-10T02:31:37;-0.90;99.90
58413;DHT22;44209;52.952;6.790;2022-12-10T02:34:07;-0.90;99.90
58413;DHT22;44209;52.952;6.790;2022-12-10T02:36:35;-0.90;99.90
58413;DHT22;44209;52.952;6.790;2022-12-10T02:39:06;-0.90;99.90
58413;DHT22;44209;52.952;6.790;2022-12-10T02:41:37;-0.90;99.90
58413;DHT22;44209;52.952;6.790;2022-12-10T02:44:06;-1.00;99.90
58413;DHT22;44209;52.952;6.790;2022-12-10T02:46:34;-1.00;99.90
58413;DHT22;44209;52.952;6.790;2022-12-10T02:49:03;-1.00;99.90
58413;DHT22;44209;52.952;6.790;2022-12-10T02:51:29;-1.00;99.90
58413;DHT22;44209;52.952;6.790;2022-12-10T02:54:05;-1.00;99.90
58413;DHT22;44209;52.952;6.790;2022-12-10T02:56:39;-1.00;99.90
58413;DHT22;44209;52.952;6.790;2022-12-10T02:59:36;-1.10;99.90
58413;DHT22;44209;52.952;6.790;2022-12-10T03:02:17;-1.10;99.90
58413;DHT22;44209;52.952;6.790;2022-12-10T03:05:06;-1.10;99.90
58413;DHT22;44209;52.952;6.790;2022-12-10T03:10:35;-1.20;99.90
58413;DHT22;44209;52.952;6.790;2022-12-10T03:13:07;-1.20;99.90
58413;DHT22;44209;52.952;6.790;2022-12-10T03:15:36;-1.20;99.90
58413;DHT22;44209;52.952;6.790;2022-12-10T03:18:06;-1.20;99.90
58413;DHT22;44209;52.952;6.790;2022-12-10T03:20:35;-1.20;99.90
58413;DHT22;44209;52.952;6.790;2022-12-10T03:23:03;-1.20;99.90
58413;DHT22;44209;52.952;6.790;2022-12-10T03:25:30;-1.20;99.90
58413;DHT22;44209;52.952;6.790;2022-12-10T03:27:59;-1.20;99.90
58413;DHT22;44209;52.952;6.790;2022-12-10T03:30:26;-1.30;99.90
58413;DHT22;44209;52.952;6.790;2022-12-10T03:32:52;-1.30;99.90
58413;DHT22;44209;52.952;6.790;2022-12-10T03:35:20;-1.30;99.90
58413;DHT22;44209;52.952;6.790;2022-12-10T03:37:48;-1.30;99.90
58413;DHT22;44209;52.952;6.790;2022-12-10T03:40:17;-1.30;99.90
58413;DHT22;44209;52.952;6.790;2022-12-10T03:42:43;-1.40;99.90
58413;DHT22;44209;52.952;6.790;2022-12-10T03:45:10;-1.40;99.90
58413;DHT22;44209;52.952;6.790;2022-12-10T03:47:35;-1.40;99.90
58413;DHT22;44209;52.952;6.790;2022-12-10T03:50:01;-1.40;99.90
58413;DHT22;44209;52.952;6.790;2022-12-10T03:52:27;-1.40;99.90
58413;DHT22;44209;52.952;6.790;2022-12-10T03:54:52;-1.40;99.90
58413;DHT22;44209;52.952;6.790;2022-12-10T03:57:18;-1.40;99.90
58413;DHT22;44209;52.952;6.790;2022-12-10T03:59:44;-1.40;99.90
58413;DHT22;44209;52.952;6.790;2022-12-10T04:02:09;-1.40;99.90
58413;DHT22;44209;52.952;6.790;2022-12-10T04:04:36;-1.50;99.90
58413;DHT22;44209;52.952;6.790;2022-12-10T04:07:02;-1.50;99.90
58413;DHT22;44209;52.952;6.790;2022-12-10T04:09:27;-1.50;99.90
58413;DHT22;44209;52.952;6.790;2022-12-10T04:11:57;-1.50;99.90
58413;DHT22;44209;52.952;6.790;2022-12-10T04:14:24;-1.50;99.90
58413;DHT22;44209;52.952;6.790;2022-12-10T04:17:08;-1.50;99.90
58413;DHT22;44209;52.952;6.790;2022-12-10T04:19:34;-1.50;99.90
58413;DHT22;44209;52.952;6.790;2022-12-10T04:22:00;-1.50;99.90
58413;DHT22;44209;52.952;6.790;2022-12-10T04:24:55;-1.50;99.90
58413;DHT22;44209;52.952;6.790;2022-12-10T04:27:53;-1.60;99.90
58413;DHT22;44209;52.952;6.790;2022-12-10T04:30:18;-1.50;99.90
58413;DHT22;44209;52.952;6.790;2022-12-10T04:32:44;-1.60;99.90
58413;DHT22;44209;52.952;6.790;2022-12-10T04:35:10;-1.60;99.90
58413;DHT22;44209;52.952;6.790;2022-12-10T04:37:36;-1.60;99.90
58413;DHT22;44209;52.952;6.790;2022-12-10T04:40:02;-1.60;99.90
58413;DHT22;44209;52.952;6.790;2022-12-10T04:42:28;-1.60;99.90
58413;DHT22;44209;52.952;6.790;2022-12-10T04:44:54;-1.60;99.90
58413;DHT22;44209;52.952;6.790;2022-12-10T04:47:19;-1.60;99.90
58413;DHT22;44209;52.952;6.790;2022-12-10T04:49:45;-1.60;99.90
58413;DHT22;44209;52.952;6.790;2022-12-10T04:52:12;-1.60;99.90
58413;DHT22;44209;52.952;6.790;2022-12-10T04:54:39;-1.60;99.90
58413;DHT22;44209;52.952;6.790;2022-12-10T04:57:05;-1.70;99.90
58413;DHT22;44209;52.952;6.790;2022-12-10T04:59:31;-1.70;99.90
58413;DHT22;44209;52.952;6.790;2022-12-10T05:01:57;-1.70;99.90
58413;DHT22;44209;52.952;6.790;2022-12-10T05:04:23;-1.70;99.90
58413;DHT22;44209;52.952;6.790;2022-12-10T05:06:49;-1.70;99.90
58413;DHT22;44209;52.952;6.790;2022-12-10T05:09:16;-1.70;99.90
58413;DHT22;44209;52.952;6.790;2022-12-10T05:11:42;-1.70;99.90
58413;DHT22;44209;52.952;6.790;2022-12-10T05:14:14;-1.70;99.90
58413;DHT22;44209;52.952;6.790;2022-12-10T05:16:40;-1.70;99.90
58413;DHT22;44209;52.952;6.790;2022-12-10T05:19:06;-1.70;99.90
58413;DHT22;44209;52.952;6.790;2022-12-10T05:21:32;-1.70;99.90
58413;DHT22;44209;52.952;6.790;2022-12-10T05:24:25;-1.70;99.90
58413;DHT22;44209;52.952;6.790;2022-12-10T05:26:50;-1.80;99.90
58413;DHT22;44209;52.952;6.790;2022-12-10T05:29:17;-1.80;99.90
58413;DHT22;44209;52.952;6.790;2022-12-10T05:31:43;-1.80;99.90
58413;DHT22;44209;52.952;6.790;2022-12-10T05:34:10;-1.80;99.90
58413;DHT22;44209;52.952;6.790;2022-12-10T05:36:35;-1.80;99.90
58413;DHT22;44209;52.952;6.790;2022-12-10T05:39:01;-1.80;99.90
58413;DHT22;44209;52.952;6.790;2022-12-10T05:41:30;-1.80;99.90
58413;DHT22;44209;52.952;6.790;2022-12-10T05:43:57;-1.80;99.90
58413;DHT22;44209;52.952;6.790;2022-12-10T05:46:26;-1.90;99.90
58413;DHT22;44209;52.952;6.790;2022-12-10T05:48:52;-1.90;99.90
58413;DHT22;44209;52.952;6.790;2022-12-10T05:51:24;-1.90;99.90
58413;DHT22;44209;52.952;6.790;2022-12-10T05:53:51;-1.90;99.90
58413;DHT22;44209;52.952;6.790;2022-12-10T05:56:19;-1.90;99.90
58413;DHT22;44209;52.952;6.790;2022-12-10T05:58:47;-1.90;99.90
58413;DHT22;44209;52.952;6.790;2022-12-10T06:01:15;-1.90;99.90
58413;DHT22;44209;52.952;6.790;2022-12-10T06:03:41;-1.90;99.90
58413;DHT22;44209;52.952;6.790;2022-12-10T06:06:07;-1.90;99.90
58413;DHT22;44209;52.952;6.790;2022-12-10T06:08:34;-2.00;99.90
58413;DHT22;44209;52.952;6.790;2022-12-10T06:11:08;-2.00;99.90
58413;DHT22;44209;52.952;6.790;2022-12-10T06:13:35;-2.00;99.90
58413;DHT22;44209;52.952;6.790;2022-12-10T06:16:12;-2.00;99.90
58413;DHT22;44209;52.952;6.790;2022-12-10T06:18:39;-2.00;99.90
58413;DHT22;44209;52.952;6.790;2022-12-10T06:21:12;-2.00;99.90
58413;DHT22;44209;52.952;6.790;2022-12-10T06:23:40;-2.10;99.90
58413;DHT22;44209;52.952;6.790;2022-12-10T06:26:12;-2.00;99.90
58413;DHT22;44209;52.952;6.790;2022-12-10T06:28:38;-2.00;99.90
58413;DHT22;44209;52.952;6.790;2022-12-10T06:31:04;-2.10;99.90
58413;DHT22;44209;52.952;6.790;2022-12-10T06:33:30;-2.10;99.90
58413;DHT22;44209;52.952;6.790;2022-12-10T06:35:56;-2.10;99.90
58413;DHT22;44209;52.952;6.790;2022-12-10T06:38:22;-2.00;99.90
58413;DHT22;44209;52.952;6.790;2022-12-10T06:40:47;-2.00;99.90
58413;DHT22;44209;52.952;6.790;2022-12-10T06:43:13;-2.00;99.90
58413;DHT22;44209;52.952;6.790;2022-12-10T06:45:40;-2.00;99.90
58413;DHT22;44209;52.952;6.790;2022-12-10T06:48:06;-2.00;99.90
58413;DHT22;44209;52.952;6.790;2022-12-10T06:50:32;-1.90;99.90
58413;DHT22;44209;52.952;6.790;2022-12-10T06:52:58;-1.90;99.90
58413;DHT22;44209;52.952;6.790;2022-12-10T06:55:23;-2.00;99.90
58413;DHT22;44209;52.952;6.790;2022-12-10T06:57:53;-2.00;99.90
58413;DHT22;44209;52.952;6.790;2022-12-10T07:00:20;-2.00;99.90
58413;DHT22;44209;52.952;6.790;2022-12-10T07:02:46;-2.00;99.90
58413;DHT22;44209;52.952;6.790;2022-12-10T07:05:12;-1.90;99.90
58413;DHT22;44209;52.952;6.790;2022-12-10T07:07:37;-1.90;99.90
58413;DHT22;44209;52.952;6.790;2022-12-10T07:10:04;-1.90;99.90
58413;DHT22;44209;52.952;6.790;2022-12-10T07:12:30;-1.90;99.90
58413;DHT22;44209;52.952;6.790;2022-12-10T07:14:56;-1.90;99.90
58413;DHT22;44209;52.952;6.790;2022-12-10T07:17:21;-1.90;99.90
58413;DHT22;44209;52.952;6.790;2022-12-10T07:19:47;-1.90;99.90
58413;DHT22;44209;52.952;6.790;2022-12-10T07:22:13;-1.90;99.90
58413;DHT22;44209;52.952;6.790;2022-12-10T07:24:38;-1.90;99.90
58413;DHT22;44209;52.952;6.790;2022-12-10T07:27:05;-1.90;99.90
58413;DHT22;44209;52.952;6.790;2022-12-10T07:29:31;-1.80;99.90
58413;DHT22;44209;52.952;6.790;2022-12-10T07:31:57;-1.90;99.90
58413;DHT22;44209;52.952;6.790;2022-12-10T07:34:23;-1.80;99.90
58413;DHT22;44209;52.952;6.790;2022-12-10T07:36:49;-1.80;99.90
58413;DHT22;44209;52.952;6.790;2022-12-10T07:39:14;-1.80;99.90
58413;DHT22;44209;52.952;6.790;2022-12-10T07:41:49;-1.80;99.90
58413;DHT22;44209;52.952;6.790;2022-12-10T07:44:23;-1.90;99.90
58413;DHT22;44209;52.952;6.790;2022-12-10T07:46:51;-1.90;99.90
58413;DHT22;44209;52.952;6.790;2022-12-10T07:49:17;-1.90;99.90
58413;DHT22;44209;52.952;6.790;2022-12-10T07:51:47;-1.90;99.90
58413;DHT22;44209;52.952;6.790;2022-12-10T07:54:14;-1.90;99.90
58413;DHT22;44209;52.952;6.790;2022-12-10T07:56:40;-1.90;99.90
58413;DHT22;44209;52.952;6.790;2022-12-10T07:59:05;-1.90;99.90
58413;DHT22;44209;52.952;6.790;2022-12-10T08:01:32;-1.80;99.90
58413;DHT22;44209;52.952;6.790;2022-12-10T08:03:58;-1.90;99.90
58413;DHT22;44209;52.952;6.790;2022-12-10T08:06:25;-1.80;99.90
58413;DHT22;44209;52.952;6.790;2022-12-10T08:08:51;-1.80;99.90
58413;DHT22;44209;52.952;6.790;2022-12-10T08:11:19;-1.90;99.90
58413;DHT22;44209;52.952;6.790;2022-12-10T08:13:45;-1.90;99.90
58413;DHT22;44209;52.952;6.790;2022-12-10T08:16:14;-1.90;99.90
58413;DHT22;44209;52.952;6.790;2022-12-10T08:18:40;-1.80;99.90
58413;DHT22;44209;52.952;6.790;2022-12-10T08:21:08;-1.80;99.90
58413;DHT22;44209;52.952;6.790;2022-12-10T08:23:35;-1.80;99.90
58413;DHT22;44209;52.952;6.790;2022-12-10T08:26:11;-1.90;99.90
58413;DHT22;44209;52.952;6.790;2022-12-10T08:28:37;-1.80;99.90
58413;DHT22;44209;52.952;6.790;2022-12-10T08:31:04;-1.80;99.90
58413;DHT22;44209;52.952;6.790;2022-12-10T08:33:32;-1.80;99.90
58413;DHT22;44209;52.952;6.790;2022-12-10T08:36:00;-1.80;99.90
58413;DHT22;44209;52.952;6.790;2022-12-10T08:38:26;-1.70;99.90
58413;DHT22;44209;52.952;6.790;2022-12-10T08:40:52;-1.70;99.90
58413;DHT22;44209;52.952;6.790;2022-12-10T08:43:17;-1.70;99.90
58413;DHT22;44209;52.952;6.790;2022-12-10T08:45:43;-1.70;99.90
58413;DHT22;44209;52.952;6.790;2022-12-10T08:48:09;-1.60;99.90
58413;DHT22;44209;52.952;6.790;2022-12-10T08:50:36;-1.70;99.90
58413;DHT22;44209;52.952;6.790;2022-12-10T08:53:02;-1.70;99.90
58413;DHT22;44209;52.952;6.790;2022-12-10T08:55:28;-1.60;99.90
58413;DHT22;44209;52.952;6.790;2022-12-10T08:57:53;-1.60;99.90
58413;DHT22;44209;52.952;6.790;2022-12-10T09:00:19;-1.60;99.90
58413;DHT22;44209;52.952;6.790;2022-12-10T09:02:45;-1.50;99.90
58413;DHT22;44209;52.952;6.790;2022-12-10T09:05:11;-1.40;99.90
58413;DHT22;44209;52.952;6.790;2022-12-10T09:07:37;-1.40;99.90
58413;DHT22;44209;52.952;6.790;2022-12-10T09:10:03;-1.30;99.90
58413;DHT22;44209;52.952;6.790;2022-12-10T09:12:29;-1.30;99.90
58413;DHT22;44209;52.952;6.790;2022-12-10T09:14:55;-1.30;99.90
58413;DHT22;44209;52.952;6.790;2022-12-10T09:17:21;-1.20;99.90
58413;DHT22;44209;52.952;6.790;2022-12-10T09:19:47;-1.20;99.90
58413;DHT22;44209;52.952;6.790;2022-12-10T09:22:13;-1.20;99.90
58413;DHT22;44209;52.952;6.790;2022-12-10T09:24:39;-1.10;99.90
58413;DHT22;44209;52.952;6.790;2022-12-10T09:27:04;-1.20;99.90
58413;DHT22;44209;52.952;6.790;2022-12-10T09:29:30;-1.10;99.90
58413;DHT22;44209;52.952;6.790;2022-12-10T09:31:56;-1.10;99.90
58413;DHT22;44209;52.952;6.790;2022-12-10T09:34:21;-1.00;99.90
58413;DHT22;44209;52.952;6.790;2022-12-10T09:36:47;-0.90;99.90
58413;DHT22;44209;52.952;6.790;2022-12-10T09:39:14;-0.80;99.90
58413;DHT22;44209;52.952;6.790;2022-12-10T09:44:54;-0.60;99.90
58413;DHT22;44209;52.952;6.790;2022-12-10T09:47:31;-0.50;99.90
58413;DHT22;44209;52.952;6.790;2022-12-10T09:52:27;-0.50;99.90
58413;DHT22;44209;52.952;6.790;2022-12-10T09:54:55;-0.50;99.90
58413;DHT22;44209;52.952;6.790;2022-12-10T09:57:32;-0.50;99.90
58413;DHT22;44209;52.952;6.790;2022-12-10T10:00:06;-0.40;99.90
58413;DHT22;44209;52.952;6.790;2022-12-10T10:02:40;-0.40;99.90
58413;DHT22;44209;52.952;6.790;2022-12-10T10:07:35;-0.30;99.90
58413;DHT22;44209;52.952;6.790;2022-12-10T10:10:32;-0.30;99.90
58413;DHT22;44209;52.952;6.790;2022-12-10T10:15:40;-0.20;99.90
58413;DHT22;44209;52.952;6.790;2022-12-10T10:18:17;-0.20;99.90
58413;DHT22;44209;52.952;6.790;2022-12-10T10:20:47;-0.20;99.90
58413;DHT22;44209;52.952;6.790;2022-12-10T10:23:15;-0.10;99.90
58413;DHT22;44209;52.952;6.790;2022-12-10T10:25:41;-0.10;99.90
58413;DHT22;44209;52.952;6.790;2022-12-10T10:28:16;-0.10;99.90
58413;DHT22;44209;52.952;6.790;2022-12-10T10:30:43;-0.10;99.90
58413;DHT22;44209;52.952;6.790;2022-12-10T10:33:11;-0.10;99.90
58413;DHT22;44209;52.952;6.790;2022-12-10T10:35:57;-0.10;99.90
58413;DHT22;44209;52.952;6.790;2022-12-10T10:38:26;-0.10;99.90
58413;DHT22;44209;52.952;6.790;2022-12-10T10:40:57;-0.10;99.90
58413;DHT22;44209;52.952;6.790;2022-12-10T10:43:27;-0.10;99.90
58413;DHT22;44209;52.952;6.790;2022-12-10T10:46:06;-0.10;99.90
58413;DHT22;44209;52.952;6.790;2022-12-10T10:48:36;-0.10;99.90
58413;DHT22;44209;52.952;6.790;2022-12-10T11:02:01;0.00;99.90
58413;DHT22;44209;52.952;6.790;2022-12-10T11:07:03;-0.10;99.90
58413;DHT22;44209;52.952;6.790;2022-12-10T11:09:32;0.00;99.90
58413;DHT22;44209;52.952;6.790;2022-12-10T11:12:02;-0.10;99.90
58413;DHT22;44209;52.952;6.790;2022-12-10T11:14:44;0.00;99.90
58413;DHT22;44209;52.952;6.790;2022-12-10T11:22:35;0.00;99.90
58413;DHT22;44209;52.952;6.790;2022-12-10T11:25:01;0.00;99.90
58413;DHT22;44209;52.952;6.790;2022-12-10T11:27:55;0.00;99.90
58413;DHT22;44209;52.952;6.790;2022-12-10T11:30:25;0.00;99.90
58413;DHT22;44209;52.952;6.790;2022-12-10T11:33:00;0.00;99.90
58413;DHT22;44209;52.952;6.790;2022-12-10T11:35:40;0.00;99.90
58413;DHT22;44209;52.952;6.790;2022-12-10T11:38:31;0.10;99.90
58413;DHT22;44209;52.952;6.790;2022-12-10T11:41:36;0.10;99.90
58413;DHT22;44209;52.952;6.790;2022-12-10T11:46:58;0.10;99.90
58413;DHT22;44209;52.952;6.790;2022-12-10T12:00:40;0.20;99.90
58413;DHT22;44209;52.952;6.790;2022-12-10T12:06:27;0.20;99.90
58413;DHT22;44209;52.952;6.790;2022-12-10T12:09:12;0.20;99.90
58413;DHT22;44209;52.952;6.790;2022-12-10T12:12:10;0.10;99.90
58413;DHT22;44209;52.952;6.790;2022-12-10T12:14:48;0.10;99.90
58413;DHT22;44209;52.952;6.790;2022-12-10T12:17:23;0.00;99.90
58413;DHT22;44209;52.952;6.790;2022-12-10T12:19:54;0.00;99.90
58413;DHT22;44209;52.952;6.790;2022-12-10T12:22:25;0.00;99.90
58413;DHT22;44209;52.952;6.790;2022-12-10T12:30:43;-0.10;99.90
58413;DHT22;44209;52.952;6.790;2022-12-10T12:33:13;-0.10;99.90
58413;DHT22;44209;52.952;6.790;2022-12-10T12:40:45;-0.10;99.90
58413;DHT22;44209;52.952;6.790;2022-12-10T12:43:21;-0.10;99.90
58413;DHT22;44209;52.952;6.790;2022-12-10T12:45:52;-0.10;99.90
58413;DHT22;44209;52.952;6.790;2022-12-10T12:49:00;-0.10;99.90
58413;DHT22;44209;52.952;6.790;2022-12-10T12:51:32;-0.10;99.90
58413;DHT22;44209;52.952;6.790;2022-12-10T12:53:59;-0.10;99.90
58413;DHT22;44209;52.952;6.790;2022-12-10T13:04:39;-0.10;99.90
58413;DHT22;44209;52.952;6.790;2022-12-10T13:13:06;0.00;99.90
58413;DHT22;44209;52.952;6.790;2022-12-10T13:15:37;0.00;99.90
58413;DHT22;44209;52.952;6.790;2022-12-10T13:20:46;0.00;99.90
58413;DHT22;44209;52.952;6.790;2022-12-10T13:36:37;0.20;99.90
58413;DHT22;44209;52.952;6.790;2022-12-10T13:39:34;0.20;99.90
58413;DHT22;44209;52.952;6.790;2022-12-10T13:47:51;0.10;99.90
58413;DHT22;44209;52.952;6.790;2022-12-10T13:58:08;0.10;99.90
58413;DHT22;44209;52.952;6.790;2022-12-10T14:00:49;0.10;99.90
58413;DHT22;44209;52.952;6.790;2022-12-10T14:03:50;0.20;99.90
58413;DHT22;44209;52.952;6.790;2022-12-10T14:06:25;0.20;99.90
58413;DHT22;44209;52.952;6.790;2022-12-10T14:09:03;0.10;99.90
58413;DHT22;44209;52.952;6.790;2022-12-10T14:11:34;0.20;99.90
58413;DHT22;44209;52.952;6.790;2022-12-10T14:14:01;0.10;99.90
58413;DHT22;44209;52.952;6.790;2022-12-10T14:16:30;0.10;99.90
58413;DHT22;44209;52.952;6.790;2022-12-10T14:19:13;0.10;99.90
58413;DHT22;44209;52.952;6.790;2022-12-10T14:21:41;0.10;99.90
58413;DHT22;44209;52.952;6.790;2022-12-10T14:24:29;0.10;99.90
58413;DHT22;44209;52.952;6.790;2022-12-10T14:27:19;0.00;99.90
58413;DHT22;44209;52.952;6.790;2022-12-10T14:29:50;0.00;99.90
58413;DHT22;44209;52.952;6.790;2022-12-10T14:32:33;0.00;99.90
58413;DHT22;44209;52.952;6.790;2022-12-10T14:35:00;0.00;99.90
58413;DHT22;44209;52.952;6.790;2022-12-10T14:37:35;0.00;99.90
58413;DHT22;44209;52.952;6.790;2022-12-10T14:40:05;0.10;99.90
58413;DHT22;44209;52.952;6.790;2022-12-10T14:42:31;0.10;99.90
58413;DHT22;44209;52.952;6.790;2022-12-10T14:44:59;0.10;99.90
58413;DHT22;44209;52.952;6.790;2022-12-10T14:47:26;0.10;99.90
58413;DHT22;44209;52.952;6.790;2022-12-10T14:49:54;0.10;99.90
58413;DHT22;44209;52.952;6.790;2022-12-10T14:52:24;0.10;99.90
58413;DHT22;44209;52.952;6.790;2022-12-10T14:54:51;0.10;99.90
58413;DHT22;44209;52.952;6.790;2022-12-10T14:57:37;0.10;99.90
58413;DHT22;44209;52.952;6.790;2022-12-10T15:00:15;0.10;99.90
58413;DHT22;44209;52.952;6.790;2022-12-10T15:02:44;0.10;99.90
58413;DHT22;44209;52.952;6.790;2022-12-10T15:05:12;0.10;99.90
58413;DHT22;44209;52.952;6.790;2022-12-10T15:07:38;0.10;99.90
58413;DHT22;44209;52.952;6.790;2022-12-10T15:10:14;0.10;99.90
58413;DHT22;44209;52.952;6.790;2022-12-10T15:12:47;0.10;99.90
58413;DHT22;44209;52.952;6.790;2022-12-10T15:15:28;0.10;99.90
58413;DHT22;44209;52.952;6.790;2022-12-10T15:18:19;0.10;99.90
58413;DHT22;44209;52.952;6.790;2022-12-10T15:28:40;0.10;99.90
58413;DHT22;44209;52.952;6.790;2022-12-10T15:33:56;0.00;99.90
58413;DHT22;44209;52.952;6.790;2022-12-10T15:36:33;0.10;99.90
58413;DHT22;44209;52.952;6.790;2022-12-10T15:41:46;0.00;99.90
58413;DHT22;44209;52.952;6.790;2022-12-10T15:49:24;0.00;99.90
58413;DHT22;44209;52.952;6.790;2022-12-10T15:51:50;0.00;99.90
58413;DHT22;44209;52.952;6.790;2022-12-10T15:54:36;0.00;99.90
58413;DHT22;44209;52.952;6.790;2022-12-10T15:57:15;0.00;99.90
58413;DHT22;44209;52.952;6.790;2022-12-10T15:59:42;0.00;99.90
58413;DHT22;44209;52.952;6.790;2022-12-10T16:02:37;0.00;99.90
58413;DHT22;44209;52.952;6.790;2022-12-10T16:05:15;0.00;99.90
58413;DHT22;44209;52.952;6.790;2022-12-10T16:07:42;0.00;99.90
58413;DHT22;44209;52.952;6.790;2022-12-10T16:10:10;-0.10;99.90
58413;DHT22;44209;52.952;6.790;2022-12-10T16:12:37;0.00;99.90
58413;DHT22;44209;52.952;6.790;2022-12-10T16:15:05;0.00;99.90
58413;DHT22;44209;52.952;6.790;2022-12-10T16:17:31;0.00;99.90
58413;DHT22;44209;52.952;6.790;2022-12-10T16:20:44;0.00;99.90
58413;DHT22;44209;52.952;6.790;2022-12-10T16:22:45;0.00;99.90
58413;DHT22;44209;52.952;6.790;2022-12-10T16:25:11;0.00;99.90
58413;DHT22;44209;52.952;6.790;2022-12-10T16:27:38;0.00;99.90
58413;DHT22;44209;52.952;6.790;2022-12-10T16:30:28;0.00;99.90
58413;DHT22;44209;52.952;6.790;2022-12-10T16:32:54;0.00;99.90
58413;DHT22;44209;52.952;6.790;2022-12-10T16:35:21;0.00;99.90
58413;DHT22;44209;52.952;6.790;2022-12-10T16:37:48;0.00;99.90
58413;DHT22;44209;52.952;6.790;2022-12-10T16:40:21;0.00;99.90
58413;DHT22;44209;52.952;6.790;2022-12-10T16:42:47;0.00;99.90
58413;DHT22;44209;52.952;6.790;2022-12-10T16:45:17;0.00;99.90
58413;DHT22;44209;52.952;6.790;2022-12-10T16:47:43;0.00;99.90
58413;DHT22;44209;52.952;6.790;2022-12-10T16:50:09;0.00;99.90
58413;DHT22;44209;52.952;6.790;2022-12-10T16:52:35;0.00;99.90
58413;DHT22;44209;52.952;6.790;2022-12-10T16:55:01;0.00;99.90
58413;DHT22;44209;52.952;6.790;2022-12-10T16:57:27;0.00;99.90
58413;DHT22;44209;52.952;6.790;2022-12-10T16:59:53;0.00;99.90
58413;DHT22;44209;52.952;6.790;2022-12-10T17:02:19;0.00;99.90
58413;DHT22;44209;52.952;6.790;2022-12-10T17:04:46;0.00;99.90
58413;DHT22;44209;52.952;6.790;2022-12-10T17:07:13;-0.10;99.90
58413;DHT22;44209;52.952;6.790;2022-12-10T17:09:40;-0.10;99.90
58413;DHT22;44209;52.952;6.790;2022-12-10T17:12:08;-0.10;99.90
58413;DHT22;44209;52.952;6.790;2022-12-10T17:14:37;-0.10;99.90
58413;DHT22;44209;52.952;6.790;2022-12-10T17:17:04;-0.10;99.90
58413;DHT22;44209;52.952;6.790;2022-12-10T17:19:32;-0.10;99.90
58413;DHT22;44209;52.952;6.790;2022-12-10T17:21:59;-0.10;99.90
58413;DHT22;44209;52.952;6.790;2022-12-10T17:24:25;-0.10;99.90
58413;DHT22;44209;52.952;6.790;2022-12-10T17:26:52;-0.10;99.90
58413;DHT22;44209;52.952;6.790;2022-12-10T17:29:25;-0.20;99.90
58413;DHT22;44209;52.952;6.790;2022-12-10T17:31:51;-0.10;99.90
58413;DHT22;44209;52.952;6.790;2022-12-10T17:34:17;-0.20;99.90
58413;DHT22;44209;52.952;6.790;2022-12-10T17:36:43;-0.20;99.90
58413;DHT22;44209;52.952;6.790;2022-12-10T17:39:14;-0.10;99.90
58413;DHT22;44209;52.952;6.790;2022-12-10T17:41:40;-0.10;99.90
58413;DHT22;44209;52.952;6.790;2022-12-10T17:44:06;-0.20;99.90
58413;DHT22;44209;52.952;6.790;2022-12-10T17:46:32;-0.20;99.90
58413;DHT22;44209;52.952;6.790;2022-12-10T17:48:58;-0.20;99.90
58413;DHT22;44209;52.952;6.790;2022-12-10T17:51:24;-0.10;99.90
58413;DHT22;44209;52.952;6.790;2022-12-10T17:53:50;-0.10;99.90
58413;DHT22;44209;52.952;6.790;2022-12-10T17:56:19;-0.10;99.90
58413;DHT22;44209;52.952;6.790;2022-12-10T17:58:46;-0.10;99.90
58413;DHT22;44209;52.952;6.790;2022-12-10T18:01:12;-0.10;99.90
58413;DHT22;44209;52.952;6.790;2022-12-10T18:03:39;-0.10;99.90